sensor_id;sensor_type;location;lat;lon;timestamp;temperature;humidity
67157;SHT31;54086;50.126;8.710;2023-09-30T00:01:01;17.63;82.80
67157;SHT31;54086;50.126;8.710;2023-09-30T00:03:27;17.52;83.11
67157;SHT31;54086;50.126;8.710;2023-09-30T00:05:52;17.54;83.18
67157;SHT31;54086;50.126;8.710;2023-09-30T00:08:18;17.54;82.88
67157;SHT31;54086;50.126;8.710;2023-09-30T00:10:43;17.57;82.94
67157;SHT31;54086;50.126;8.710;2023-09-30T00:13:08;17.53;82.90
67157;SHT31;54086;50.126;8.710;2023-09-30T00:15:34;17.53;83.04
67157;SHT31;54086;50.126;8.710;2023-09-30T00:18:00;17.50;83.23
67157;SHT31;54086;50.126;8.710;2023-09-30T00:20:30;17.47;83.40
67157;SHT31;54086;50.126;8.710;2023-09-30T00:22:55;17.46;83.47
67157;SHT31;54086;50.126;8.710;2023-09-30T00:25:21;17.36;83.92
67157;SHT31;54086;50.126;8.710;2023-09-30T00:27:49;17.40;83.94
67157;SHT31;54086;50.126;8.710;2023-09-30T00:30:15;17.36;84.12
67157;SHT31;54086;50.126;8.710;2023-09-30T00:32:40;17.29;84.24
67157;SHT31;54086;50.126;8.710;2023-09-30T00:35:06;17.29;84.46
67157;SHT31;54086;50.126;8.710;2023-09-30T00:37:40;17.23;84.35
67157;SHT31;54086;50.126;8.710;2023-09-30T00:40:07;17.25;84.33
67157;SHT31;54086;50.126;8.710;2023-09-30T00:42:40;17.29;84.19
67157;SHT31;54086;50.126;8.710;2023-09-30T00:45:06;17.23;84.08
67157;SHT31;54086;50.126;8.710;2023-09-30T00:47:34;17.31;84.11
67157;SHT31;54086;50.126;8.710;2023-09-30T00:50:01;17.36;84.18
67157;SHT31;54086;50.126;8.710;2023-09-30T00:52:29;17.26;84.25
67157;SHT31;54086;50.126;8.710;2023-09-30T00:54:55;17.23;84.69
67157;SHT31;54086;50.126;8.710;2023-09-30T00:57:21;17.11;84.89
67157;SHT31;54086;50.126;8.710;2023-09-30T00:59:48;17.00;85.03
67157;SHT31;54086;50.126;8.710;2023-09-30T01:02:14;16.98;85.35
67157;SHT31;54086;50.126;8.710;2023-09-30T01:04:40;16.94;85.36
67157;SHT31;54086;50.126;8.710;2023-09-30T01:07:06;16.89;85.56
67157;SHT31;54086;50.126;8.710;2023-09-30T01:09:32;16.98;85.33
67157;SHT31;54086;50.126;8.710;2023-09-30T01:11:59;17.00;84.88
67157;SHT31;54086;50.126;8.710;2023-09-30T01:14:27;17.00;84.69
67157;SHT31;54086;50.126;8.710;2023-09-30T01:16:54;17.04;84.63
67157;SHT31;54086;50.126;8.710;2023-09-30T01:19:20;17.11;84.49
67157;SHT31;54086;50.126;8.710;2023-09-30T01:21:45;17.12;84.40
67157;SHT31;54086;50.126;8.710;2023-09-30T01:24:16;17.14;84.55
67157;SHT31;54086;50.126;8.710;2023-09-30T01:26:42;17.11;84.48
67157;SHT31;54086;50.126;8.710;2023-09-30T01:29:08;17.15;84.55
67157;SHT31;54086;50.126;8.710;2023-09-30T01:31:37;17.08;84.69
67157;SHT31;54086;50.126;8.710;2023-09-30T01:34:04;17.10;84.64
67157;SHT31;54086;50.126;8.710;2023-09-30T01:36:29;17.02;84.05
67157;SHT31;54086;50.126;8.710;2023-09-30T01:38:55;16.92;84.91
67157;SHT31;54086;50.126;8.710;2023-09-30T01:41:20;16.94;84.52
67157;SHT31;54086;50.126;8.710;2023-09-30T01:43:46;17.00;84.00
67157;SHT31;54086;50.126;8.710;2023-09-30T01:46:12;17.01;84.09
67157;SHT31;54086;50.126;8.710;2023-09-30T01:48:38;16.96;83.95
67157;SHT31;54086;50.126;8.710;2023-09-30T01:51:03;16.89;83.94
67157;SHT31;54086;50.126;8.710;2023-09-30T01:53:29;16.85;84.09
67157;SHT31;54086;50.126;8.710;2023-09-30T01:55:54;16.81;84.13
67157;SHT31;54086;50.126;8.710;2023-09-30T01:58:20;16.83;84.06
67157;SHT31;54086;50.126;8.710;2023-09-30T02:00:45;16.84;84.13
67157;SHT31;54086;50.126;8.710;2023-09-30T02:03:10;16.84;84.20
67157;SHT31;54086;50.126;8.710;2023-09-30T02:05:37;16.83;84.50
67157;SHT31;54086;50.126;8.710;2023-09-30T02:08:03;16.83;84.59
67157;SHT31;54086;50.126;8.710;2023-09-30T02:10:31;16.80;84.57
67157;SHT31;54086;50.126;8.710;2023-09-30T02:12:58;16.77;84.79
67157;SHT31;54086;50.126;8.710;2023-09-30T02:15:24;16.81;84.99
67157;SHT31;54086;50.126;8.710;2023-09-30T02:17:50;16.78;85.20
67157;SHT31;54086;50.126;8.710;2023-09-30T02:20:17;16.73;85.36
67157;SHT31;54086;50.126;8.710;2023-09-30T02:22:45;16.77;85.17
67157;SHT31;54086;50.126;8.710;2023-09-30T02:25:10;16.70;85.20
67157;SHT31;54086;50.126;8.710;2023-09-30T02:27:38;16.64;85.31
67157;SHT31;54086;50.126;8.710;2023-09-30T02:30:04;16.56;85.35
67157;SHT31;54086;50.126;8.710;2023-09-30T02:32:31;16.50;85.19
67157;SHT31;54086;50.126;8.710;2023-09-30T02:34:58;16.52;84.88
67157;SHT31;54086;50.126;8.710;2023-09-30T02:37:23;16.36;84.50
67157;SHT31;54086;50.126;8.710;2023-09-30T02:39:49;16.34;84.59
67157;SHT31;54086;50.126;8.710;2023-09-30T02:42:14;16.34;84.54
67157;SHT31;54086;50.126;8.710;2023-09-30T02:44:40;16.46;84.05
67157;SHT31;54086;50.126;8.710;2023-09-30T02:47:05;16.34;83.99
67157;SHT31;54086;50.126;8.710;2023-09-30T02:49:34;16.37;84.05
67157;SHT31;54086;50.126;8.710;2023-09-30T02:52:00;16.40;83.96
67157;SHT31;54086;50.126;8.710;2023-09-30T02:54:26;16.37;83.85
67157;SHT31;54086;50.126;8.710;2023-09-30T02:56:52;16.33;83.74
67157;SHT31;54086;50.126;8.710;2023-09-30T02:59:17;16.37;83.83
67157;SHT31;54086;50.126;8.710;2023-09-30T03:01:44;16.34;83.74
67157;SHT31;54086;50.126;8.710;2023-09-30T03:04:10;16.29;83.85
67157;SHT31;54086;50.126;8.710;2023-09-30T03:06:38;16.27;83.83
67157;SHT31;54086;50.126;8.710;2023-09-30T03:09:04;16.24;84.05
67157;SHT31;54086;50.126;8.710;2023-09-30T03:11:30;16.22;84.04
67157;SHT31;54086;50.126;8.710;2023-09-30T03:13:56;16.26;83.90
67157;SHT31;54086;50.126;8.710;2023-09-30T03:16:22;16.17;83.98
67157;SHT31;54086;50.126;8.710;2023-09-30T03:18:49;16.13;84.02
67157;SHT31;54086;50.126;8.710;2023-09-30T03:21:15;16.16;84.02
67157;SHT31;54086;50.126;8.710;2023-09-30T03:23:40;16.08;84.12
67157;SHT31;54086;50.126;8.710;2023-09-30T03:26:06;16.06;84.27
67157;SHT31;54086;50.126;8.710;2023-09-30T03:28:36;16.10;84.23
67157;SHT31;54086;50.126;8.710;2023-09-30T03:31:03;16.02;84.58
67157;SHT31;54086;50.126;8.710;2023-09-30T03:33:31;15.93;84.59
67157;SHT31;54086;50.126;8.710;2023-09-30T03:35:57;15.85;85.24
67157;SHT31;54086;50.126;8.710;2023-09-30T03:38:24;15.86;85.44
67157;SHT31;54086;50.126;8.710;2023-09-30T03:40:49;15.79;85.64
67157;SHT31;54086;50.126;8.710;2023-09-30T03:43:15;15.81;85.64
67157;SHT31;54086;50.126;8.710;2023-09-30T03:45:41;16.01;85.12
67157;SHT31;54086;50.126;8.710;2023-09-30T03:48:07;15.95;85.47
67157;SHT31;54086;50.126;8.710;2023-09-30T03:50:33;15.78;85.70
67157;SHT31;54086;50.126;8.710;2023-09-30T03:53:02;15.72;85.75
67157;SHT31;54086;50.126;8.710;2023-09-30T03:55:28;15.88;85.67
67157;SHT31;54086;50.126;8.710;2023-09-30T03:57:55;15.92;85.33
67157;SHT31;54086;50.126;8.710;2023-09-30T04:00:20;15.88;85.24
67157;SHT31;54086;50.126;8.710;2023-09-30T04:02:46;15.92;85.29
67157;SHT31;54086;50.126;8.710;2023-09-30T04:05:16;15.95;85.24
67157;SHT31;54086;50.126;8.710;2023-09-30T04:07:43;15.89;85.51
67157;SHT31;54086;50.126;8.710;2023-09-30T04:10:09;15.78;86.01
67157;SHT31;54086;50.126;8.710;2023-09-30T04:12:35;15.74;85.83
67157;SHT31;54086;50.126;8.710;2023-09-30T04:15:01;15.79;85.83
67157;SHT31;54086;50.126;8.710;2023-09-30T04:17:26;15.79;85.79
67157;SHT31;54086;50.126;8.710;2023-09-30T04:19:52;15.75;85.84
67157;SHT31;54086;50.126;8.710;2023-09-30T04:22:18;15.71;85.98
67157;SHT31;54086;50.126;8.710;2023-09-30T04:24:47;15.68;86.16
67157;SHT31;54086;50.126;8.710;2023-09-30T04:27:14;15.71;86.08
67157;SHT31;54086;50.126;8.710;2023-09-30T04:29:40;15.78;86.07
67157;SHT31;54086;50.126;8.710;2023-09-30T04:32:06;15.75;86.19
67157;SHT31;54086;50.126;8.710;2023-09-30T04:34:32;15.66;86.31
67157;SHT31;54086;50.126;8.710;2023-09-30T04:36:57;15.69;86.35
67157;SHT31;54086;50.126;8.710;2023-09-30T04:39:24;15.78;85.99
67157;SHT31;54086;50.126;8.710;2023-09-30T04:41:50;15.79;85.90
67157;SHT31;54086;50.126;8.710;2023-09-30T04:44:15;15.79;85.92
67157;SHT31;54086;50.126;8.710;2023-09-30T04:46:41;15.85;85.87
67157;SHT31;54086;50.126;8.710;2023-09-30T04:49:12;15.81;85.94
67157;SHT31;54086;50.126;8.710;2023-09-30T04:51:38;15.64;86.28
67157;SHT31;54086;50.126;8.710;2023-09-30T04:54:04;15.59;86.39
67157;SHT31;54086;50.126;8.710;2023-09-30T04:56:32;15.58;86.53
67157;SHT31;54086;50.126;8.710;2023-09-30T04:58:57;15.59;86.58
67157;SHT31;54086;50.126;8.710;2023-09-30T05:01:24;15.59;86.48
67157;SHT31;54086;50.126;8.710;2023-09-30T05:03:50;15.55;86.59
67157;SHT31;54086;50.126;8.710;2023-09-30T05:06:15;15.47;87.00
67157;SHT31;54086;50.126;8.710;2023-09-30T05:08:41;15.50;86.65
67157;SHT31;54086;50.126;8.710;2023-09-30T05:11:07;15.53;86.64
67157;SHT31;54086;50.126;8.710;2023-09-30T05:13:32;15.58;86.29
67157;SHT31;54086;50.126;8.710;2023-09-30T05:15:59;15.43;86.77
67157;SHT31;54086;50.126;8.710;2023-09-30T05:18:24;15.48;86.59
67157;SHT31;54086;50.126;8.710;2023-09-30T05:20:50;15.55;86.65
67157;SHT31;54086;50.126;8.710;2023-09-30T05:23:15;15.55;86.51
67157;SHT31;54086;50.126;8.710;2023-09-30T05:25:41;15.51;86.53
67157;SHT31;54086;50.126;8.710;2023-09-30T05:28:07;15.47;86.72
67157;SHT31;54086;50.126;8.710;2023-09-30T05:30:33;15.38;87.00
67157;SHT31;54086;50.126;8.710;2023-09-30T05:32:59;15.41;86.79
67157;SHT31;54086;50.126;8.710;2023-09-30T05:35:25;15.34;86.85
67157;SHT31;54086;50.126;8.710;2023-09-30T05:37:50;15.41;87.05
67157;SHT31;54086;50.126;8.710;2023-09-30T05:40:22;15.44;86.77
67157;SHT31;54086;50.126;8.710;2023-09-30T05:42:54;15.53;86.48
67157;SHT31;54086;50.126;8.710;2023-09-30T05:45:22;15.53;85.99
67157;SHT31;54086;50.126;8.710;2023-09-30T05:47:48;15.58;85.81
67157;SHT31;54086;50.126;8.710;2023-09-30T05:50:14;15.57;85.92
67157;SHT31;54086;50.126;8.710;2023-09-30T05:52:42;15.66;86.25
67157;SHT31;54086;50.126;8.710;2023-09-30T05:55:08;15.41;86.53
67157;SHT31;54086;50.126;8.710;2023-09-30T05:57:33;15.06;87.93
67157;SHT31;54086;50.126;8.710;2023-09-30T06:00:00;14.79;89.04
67157;SHT31;54086;50.126;8.710;2023-09-30T06:02:26;14.75;89.49
67157;SHT31;54086;50.126;8.710;2023-09-30T06:04:51;14.68;89.70
67157;SHT31;54086;50.126;8.710;2023-09-30T06:07:18;14.80;89.10
67157;SHT31;54086;50.126;8.710;2023-09-30T06:09:45;14.87;89.09
67157;SHT31;54086;50.126;8.710;2023-09-30T06:12:13;14.75;89.18
67157;SHT31;54086;50.126;8.710;2023-09-30T06:14:39;14.75;89.15
67157;SHT31;54086;50.126;8.710;2023-09-30T06:17:06;14.82;89.01
67157;SHT31;54086;50.126;8.710;2023-09-30T06:19:32;14.79;89.18
67157;SHT31;54086;50.126;8.710;2023-09-30T06:21:57;14.82;89.08
67157;SHT31;54086;50.126;8.710;2023-09-30T06:24:22;14.85;88.69
67157;SHT31;54086;50.126;8.710;2023-09-30T06:26:48;14.86;89.00
67157;SHT31;54086;50.126;8.710;2023-09-30T06:29:14;14.85;88.45
67157;SHT31;54086;50.126;8.710;2023-09-30T06:31:40;15.03;88.11
67157;SHT31;54086;50.126;8.710;2023-09-30T06:34:05;15.08;87.62
67157;SHT31;54086;50.126;8.710;2023-09-30T06:36:32;15.04;87.58
67157;SHT31;54086;50.126;8.710;2023-09-30T06:38:57;15.17;87.23
67157;SHT31;54086;50.126;8.710;2023-09-30T06:41:24;15.37;86.60
67157;SHT31;54086;50.126;8.710;2023-09-30T06:43:49;15.41;86.36
67157;SHT31;54086;50.126;8.710;2023-09-30T06:46:16;15.40;86.30
67157;SHT31;54086;50.126;8.710;2023-09-30T06:48:42;15.43;86.07
67157;SHT31;54086;50.126;8.710;2023-09-30T06:51:09;15.45;85.89
67157;SHT31;54086;50.126;8.710;2023-09-30T06:53:38;15.44;86.17
67157;SHT31;54086;50.126;8.710;2023-09-30T06:56:06;15.47;86.05
67157;SHT31;54086;50.126;8.710;2023-09-30T06:58:32;15.41;86.12
67157;SHT31;54086;50.126;8.710;2023-09-30T07:00:57;15.34;86.33
67157;SHT31;54086;50.126;8.710;2023-09-30T07:03:23;15.34;86.60
67157;SHT31;54086;50.126;8.710;2023-09-30T07:05:48;15.38;86.57
67157;SHT31;54086;50.126;8.710;2023-09-30T07:08:17;15.48;86.65
67157;SHT31;54086;50.126;8.710;2023-09-30T07:10:44;15.47;86.38
67157;SHT31;54086;50.126;8.710;2023-09-30T07:13:10;15.48;86.43
67157;SHT31;54086;50.126;8.710;2023-09-30T07:15:35;15.35;86.97
67157;SHT31;54086;50.126;8.710;2023-09-30T07:18:01;15.40;86.73
67157;SHT31;54086;50.126;8.710;2023-09-30T07:20:26;15.48;86.36
67157;SHT31;54086;50.126;8.710;2023-09-30T07:22:52;15.71;85.48
67157;SHT31;54086;50.126;8.710;2023-09-30T07:25:17;16.05;84.62
67157;SHT31;54086;50.126;8.710;2023-09-30T07:27:44;16.49;83.24
67157;SHT31;54086;50.126;8.710;2023-09-30T07:30:10;16.71;82.32
67157;SHT31;54086;50.126;8.710;2023-09-30T07:32:37;16.98;81.39
67157;SHT31;54086;50.126;8.710;2023-09-30T07:35:03;17.02;80.75
67157;SHT31;54086;50.126;8.710;2023-09-30T07:37:28;17.40;79.97
67157;SHT31;54086;50.126;8.710;2023-09-30T07:39:54;18.14;78.74
67157;SHT31;54086;50.126;8.710;2023-09-30T07:42:19;18.24;77.69
67157;SHT31;54086;50.126;8.710;2023-09-30T07:44:44;18.48;76.61
67157;SHT31;54086;50.126;8.710;2023-09-30T07:47:10;17.96;77.26
67157;SHT31;54086;50.126;8.710;2023-09-30T07:49:38;17.94;77.23
67157;SHT31;54086;50.126;8.710;2023-09-30T07:52:03;17.93;76.91
67157;SHT31;54086;50.126;8.710;2023-09-30T07:54:29;17.87;76.78
67157;SHT31;54086;50.126;8.710;2023-09-30T07:56:54;18.66;74.20
67157;SHT31;54086;50.126;8.710;2023-09-30T07:59:20;18.21;75.79
67157;SHT31;54086;50.126;8.710;2023-09-30T08:01:47;17.94;75.79
67157;SHT31;54086;50.126;8.710;2023-09-30T08:04:13;18.53;74.34
67157;SHT31;54086;50.126;8.710;2023-09-30T08:06:38;18.17;74.78
67157;SHT31;54086;50.126;8.710;2023-09-30T08:09:04;18.77;73.57
67157;SHT31;54086;50.126;8.710;2023-09-30T08:11:35;18.59;73.68
67157;SHT31;54086;50.126;8.710;2023-09-30T08:14:03;18.55;73.94
67157;SHT31;54086;50.126;8.710;2023-09-30T08:16:34;18.56;74.40
67157;SHT31;54086;50.126;8.710;2023-09-30T08:19:00;18.69;73.66
67157;SHT31;54086;50.126;8.710;2023-09-30T08:21:25;19.10;73.14
67157;SHT31;54086;50.126;8.710;2023-09-30T08:23:51;19.51;71.67
67157;SHT31;54086;50.126;8.710;2023-09-30T08:26:16;19.65;71.88
67157;SHT31;54086;50.126;8.710;2023-09-30T08:28:41;19.62;71.37
67157;SHT31;54086;50.126;8.710;2023-09-30T08:31:07;19.55;71.62
67157;SHT31;54086;50.126;8.710;2023-09-30T08:33:37;19.65;71.56
67157;SHT31;54086;50.126;8.710;2023-09-30T08:36:05;19.46;71.74
67157;SHT31;54086;50.126;8.710;2023-09-30T08:38:38;19.77;71.40
67157;SHT31;54086;50.126;8.710;2023-09-30T08:41:04;19.74;71.11
67157;SHT31;54086;50.126;8.710;2023-09-30T08:43:30;19.88;71.04
67157;SHT31;54086;50.126;8.710;2023-09-30T08:46:00;20.34;70.15
67157;SHT31;54086;50.126;8.710;2023-09-30T08:48:28;20.50;70.05
67157;SHT31;54086;50.126;8.710;2023-09-30T08:50:56;20.37;69.59
67157;SHT31;54086;50.126;8.710;2023-09-30T08:53:23;20.63;69.18
67157;SHT31;54086;50.126;8.710;2023-09-30T08:55:52;20.71;69.15
67157;SHT31;54086;50.126;8.710;2023-09-30T08:58:19;20.64;69.03
67157;SHT31;54086;50.126;8.710;2023-09-30T09:00:44;19.91;70.92
67157;SHT31;54086;50.126;8.710;2023-09-30T09:03:11;19.96;70.09
67157;SHT31;54086;50.126;8.710;2023-09-30T09:05:36;19.34;71.71
67157;SHT31;54086;50.126;8.710;2023-09-30T09:08:02;19.28;71.65
67157;SHT31;54086;50.126;8.710;2023-09-30T09:10:27;20.71;69.33
67157;SHT31;54086;50.126;8.710;2023-09-30T09:12:57;21.00;67.88
67157;SHT31;54086;50.126;8.710;2023-09-30T09:15:25;20.94;67.77
67157;SHT31;54086;50.126;8.710;2023-09-30T09:17:50;20.40;68.13
67157;SHT31;54086;50.126;8.710;2023-09-30T09:20:20;20.23;69.17
67157;SHT31;54086;50.126;8.710;2023-09-30T09:22:47;20.76;67.75
67157;SHT31;54086;50.126;8.710;2023-09-30T09:25:12;21.27;67.26
67157;SHT31;54086;50.126;8.710;2023-09-30T09:27:38;22.52;64.32
67157;SHT31;54086;50.126;8.710;2023-09-30T09:33:01;22.31;64.66
67157;SHT31;54086;50.126;8.710;2023-09-30T09:35:27;22.71;63.33
67157;SHT31;54086;50.126;8.710;2023-09-30T09:38:05;23.31;61.93
67157;SHT31;54086;50.126;8.710;2023-09-30T09:40:32;22.41;64.00
67157;SHT31;54086;50.126;8.710;2023-09-30T09:42:59;23.09;62.80
67157;SHT31;54086;50.126;8.710;2023-09-30T09:45:26;23.00;62.84
67157;SHT31;54086;50.126;8.710;2023-09-30T09:47:52;23.06;62.50
67157;SHT31;54086;50.126;8.710;2023-09-30T09:50:22;23.43;61.52
67157;SHT31;54086;50.126;8.710;2023-09-30T09:52:50;22.55;62.91
67157;SHT31;54086;50.126;8.710;2023-09-30T09:55:17;22.72;62.39
67157;SHT31;54086;50.126;8.710;2023-09-30T09:57:44;22.61;61.89
67157;SHT31;54086;50.126;8.710;2023-09-30T10:00:12;22.03;63.49
67157;SHT31;54086;50.126;8.710;2023-09-30T10:02:42;21.24;65.36
67157;SHT31;54086;50.126;8.710;2023-09-30T10:05:08;21.89;63.96
67157;SHT31;54086;50.126;8.710;2023-09-30T10:07:36;22.03;63.79
67157;SHT31;54086;50.126;8.710;2023-09-30T10:10:06;22.11;63.29
67157;SHT31;54086;50.126;8.710;2023-09-30T10:12:36;22.59;63.19
67157;SHT31;54086;50.126;8.710;2023-09-30T10:20:39;23.94;56.81
67157;SHT31;54086;50.126;8.710;2023-09-30T10:23:28;23.53;55.91
67157;SHT31;54086;50.126;8.710;2023-09-30T10:28:43;21.73;57.92
67157;SHT31;54086;50.126;8.710;2023-09-30T10:31:19;21.94;58.08
67157;SHT31;54086;50.126;8.710;2023-09-30T10:36:32;23.50;54.22
67157;SHT31;54086;50.126;8.710;2023-09-30T10:38:58;23.64;54.01
67157;SHT31;54086;50.126;8.710;2023-09-30T10:46:52;23.30;55.10
67157;SHT31;54086;50.126;8.710;2023-09-30T10:51:54;23.36;55.79
67157;SHT31;54086;50.126;8.710;2023-09-30T10:54:24;23.93;54.22
67157;SHT31;54086;50.126;8.710;2023-09-30T10:56:50;23.89;54.49
67157;SHT31;54086;50.126;8.710;2023-09-30T10:59:24;24.25;54.46
67157;SHT31;54086;50.126;8.710;2023-09-30T11:01:50;23.71;54.54
67157;SHT31;54086;50.126;8.710;2023-09-30T11:04:16;24.39;54.27
67157;SHT31;54086;50.126;8.710;2023-09-30T11:06:43;23.97;54.87
67157;SHT31;54086;50.126;8.710;2023-09-30T11:09:08;24.37;54.42
67157;SHT31;54086;50.126;8.710;2023-09-30T11:11:42;24.53;54.32
67157;SHT31;54086;50.126;8.710;2023-09-30T11:16:45;24.60;53.72
67157;SHT31;54086;50.126;8.710;2023-09-30T11:19:11;23.75;54.87
67157;SHT31;54086;50.126;8.710;2023-09-30T11:21:37;23.77;55.12
67157;SHT31;54086;50.126;8.710;2023-09-30T11:24:03;24.76;53.24
67157;SHT31;54086;50.126;8.710;2023-09-30T11:26:32;24.90;53.32
67157;SHT31;54086;50.126;8.710;2023-09-30T11:29:15;24.84;53.45
67157;SHT31;54086;50.126;8.710;2023-09-30T11:31:45;24.51;52.87
67157;SHT31;54086;50.126;8.710;2023-09-30T11:34:12;23.73;54.42
67157;SHT31;54086;50.126;8.710;2023-09-30T11:36:39;23.44;55.20
67157;SHT31;54086;50.126;8.710;2023-09-30T11:39:07;23.44;55.59
67157;SHT31;54086;50.126;8.710;2023-09-30T11:41:36;22.71;56.05
67157;SHT31;54086;50.126;8.710;2023-09-30T11:44:08;23.02;56.24
67157;SHT31;54086;50.126;8.710;2023-09-30T11:46:51;22.99;56.52
67157;SHT31;54086;50.126;8.710;2023-09-30T11:51:51;23.50;55.85
67157;SHT31;54086;50.126;8.710;2023-09-30T11:54:16;23.51;55.25
67157;SHT31;54086;50.126;8.710;2023-09-30T11:56:42;23.88;54.58
67157;SHT31;54086;50.126;8.710;2023-09-30T11:59:07;23.84;53.90
67157;SHT31;54086;50.126;8.710;2023-09-30T12:01:38;25.00;52.47
67157;SHT31;54086;50.126;8.710;2023-09-30T12:04:04;25.10;51.01
67157;SHT31;54086;50.126;8.710;2023-09-30T12:06:30;24.93;51.05
67157;SHT31;54086;50.126;8.710;2023-09-30T12:08:55;24.97;51.40
67157;SHT31;54086;50.126;8.710;2023-09-30T12:11:21;25.07;50.32
67157;SHT31;54086;50.126;8.710;2023-09-30T12:13:49;25.18;49.64
67157;SHT31;54086;50.126;8.710;2023-09-30T12:16:15;25.10;50.03
67157;SHT31;54086;50.126;8.710;2023-09-30T12:18:41;25.07;51.46
67157;SHT31;54086;50.126;8.710;2023-09-30T12:21:09;25.07;51.57
67157;SHT31;54086;50.126;8.710;2023-09-30T12:23:36;25.48;50.46
67157;SHT31;54086;50.126;8.710;2023-09-30T12:26:01;25.28;50.49
67157;SHT31;54086;50.126;8.710;2023-09-30T12:28:30;24.59;51.82
67157;SHT31;54086;50.126;8.710;2023-09-30T12:30:57;24.37;52.25
67157;SHT31;54086;50.126;8.710;2023-09-30T12:33:22;24.84;51.83
67157;SHT31;54086;50.126;8.710;2023-09-30T12:35:48;24.66;51.21
67157;SHT31;54086;50.126;8.710;2023-09-30T12:38:14;25.39;50.31
67157;SHT31;54086;50.126;8.710;2023-09-30T12:40:41;25.58;49.64
67157;SHT31;54086;50.126;8.710;2023-09-30T12:43:08;24.91;50.54
67157;SHT31;54086;50.126;8.710;2023-09-30T12:45:34;25.81;48.99
67157;SHT31;54086;50.126;8.710;2023-09-30T12:47:59;24.80;49.96
67157;SHT31;54086;50.126;8.710;2023-09-30T12:50:25;24.66;50.45
67157;SHT31;54086;50.126;8.710;2023-09-30T12:52:50;25.15;49.54
67157;SHT31;54086;50.126;8.710;2023-09-30T12:55:15;25.78;48.62
67157;SHT31;54086;50.126;8.710;2023-09-30T12:57:41;25.46;49.36
67157;SHT31;54086;50.126;8.710;2023-09-30T13:00:07;25.89;47.74
67157;SHT31;54086;50.126;8.710;2023-09-30T13:02:34;26.70;46.93
67157;SHT31;54086;50.126;8.710;2023-09-30T13:05:00;26.61;46.60
67157;SHT31;54086;50.126;8.710;2023-09-30T13:07:25;24.21;50.28
67157;SHT31;54086;50.126;8.710;2023-09-30T13:09:51;26.10;47.42
67157;SHT31;54086;50.126;8.710;2023-09-30T13:12:17;26.14;46.48
67157;SHT31;54086;50.126;8.710;2023-09-30T13:14:42;25.81;46.97
67157;SHT31;54086;50.126;8.710;2023-09-30T13:17:07;26.54;46.03
67157;SHT31;54086;50.126;8.710;2023-09-30T13:19:33;26.12;46.35
67157;SHT31;54086;50.126;8.710;2023-09-30T13:21:58;25.66;46.69
67157;SHT31;54086;50.126;8.710;2023-09-30T13:24:24;25.66;47.05
67157;SHT31;54086;50.126;8.710;2023-09-30T13:26:49;24.37;48.51
67157;SHT31;54086;50.126;8.710;2023-09-30T13:29:18;24.62;48.30
67157;SHT31;54086;50.126;8.710;2023-09-30T13:31:43;24.97;47.49
67157;SHT31;54086;50.126;8.710;2023-09-30T13:34:09;25.51;45.71
67157;SHT31;54086;50.126;8.710;2023-09-30T13:36:35;25.45;46.66
67157;SHT31;54086;50.126;8.710;2023-09-30T13:39:00;25.61;45.72
67157;SHT31;54086;50.126;8.710;2023-09-30T13:41:26;25.30;45.41
67157;SHT31;54086;50.126;8.710;2023-09-30T13:43:52;24.63;46.67
67157;SHT31;54086;50.126;8.710;2023-09-30T13:46:18;24.33;46.73
67157;SHT31;54086;50.126;8.710;2023-09-30T13:48:43;23.98;48.04
67157;SHT31;54086;50.126;8.710;2023-09-30T13:51:09;23.54;49.08
67157;SHT31;54086;50.126;8.710;2023-09-30T13:53:36;22.99;49.96
67157;SHT31;54086;50.126;8.710;2023-09-30T13:56:02;23.12;50.36
67157;SHT31;54086;50.126;8.710;2023-09-30T13:58:28;23.19;50.06
67157;SHT31;54086;50.126;8.710;2023-09-30T14:00:54;23.10;49.63
67157;SHT31;54086;50.126;8.710;2023-09-30T14:03:21;22.31;50.63
67157;SHT31;54086;50.126;8.710;2023-09-30T14:05:47;22.06;50.85
67157;SHT31;54086;50.126;8.710;2023-09-30T14:08:13;22.16;51.47
67157;SHT31;54086;50.126;8.710;2023-09-30T14:10:38;22.20;51.47
67157;SHT31;54086;50.126;8.710;2023-09-30T14:13:04;21.93;51.79
67157;SHT31;54086;50.126;8.710;2023-09-30T14:15:29;21.82;52.34
67157;SHT31;54086;50.126;8.710;2023-09-30T14:17:59;21.43;53.15
67157;SHT31;54086;50.126;8.710;2023-09-30T14:20:25;21.86;52.52
67157;SHT31;54086;50.126;8.710;2023-09-30T14:22:51;22.06;52.76
67157;SHT31;54086;50.126;8.710;2023-09-30T14:25:20;22.01;51.85
67157;SHT31;54086;50.126;8.710;2023-09-30T14:27:45;21.76;52.41
67157;SHT31;54086;50.126;8.710;2023-09-30T14:30:11;21.73;52.41
67157;SHT31;54086;50.126;8.710;2023-09-30T14:32:36;21.85;52.42
67157;SHT31;54086;50.126;8.710;2023-09-30T14:35:02;21.97;52.19
67157;SHT31;54086;50.126;8.710;2023-09-30T14:37:30;22.16;51.88
67157;SHT31;54086;50.126;8.710;2023-09-30T14:39:56;22.36;51.63
67157;SHT31;54086;50.126;8.710;2023-09-30T14:42:21;21.85;51.93
67157;SHT31;54086;50.126;8.710;2023-09-30T14:44:47;21.79;52.05
67157;SHT31;54086;50.126;8.710;2023-09-30T14:47:12;21.63;52.02
67157;SHT31;54086;50.126;8.710;2023-09-30T14:49:38;21.62;52.30
67157;SHT31;54086;50.126;8.710;2023-09-30T14:52:03;21.86;52.32
67157;SHT31;54086;50.126;8.710;2023-09-30T14:54:30;21.97;51.50
67157;SHT31;54086;50.126;8.710;2023-09-30T14:56:55;21.92;51.98
67157;SHT31;54086;50.126;8.710;2023-09-30T14:59:24;21.90;52.12
67157;SHT31;54086;50.126;8.710;2023-09-30T15:01:50;21.75;52.02
67157;SHT31;54086;50.126;8.710;2023-09-30T15:04:18;21.86;51.98
67157;SHT31;54086;50.126;8.710;2023-09-30T15:06:43;21.90;52.11
67157;SHT31;54086;50.126;8.710;2023-09-30T15:09:09;21.89;52.99
67157;SHT31;54086;50.126;8.710;2023-09-30T15:11:38;21.97;53.02
67157;SHT31;54086;50.126;8.710;2023-09-30T15:14:03;21.92;52.88
67157;SHT31;54086;50.126;8.710;2023-09-30T15:16:30;21.70;53.36
67157;SHT31;54086;50.126;8.710;2023-09-30T15:18:56;21.63;53.68
67157;SHT31;54086;50.126;8.710;2023-09-30T15:21:22;21.63;54.23
67157;SHT31;54086;50.126;8.710;2023-09-30T15:23:47;21.55;54.73
67157;SHT31;54086;50.126;8.710;2023-09-30T15:26:13;21.49;55.11
67157;SHT31;54086;50.126;8.710;2023-09-30T15:28:38;21.39;55.09
67157;SHT31;54086;50.126;8.710;2023-09-30T15:31:03;21.56;55.21
67157;SHT31;54086;50.126;8.710;2023-09-30T15:33:29;21.42;55.62
67157;SHT31;54086;50.126;8.710;2023-09-30T15:35:55;21.45;55.29
67157;SHT31;54086;50.126;8.710;2023-09-30T15:38:20;21.38;55.78
67157;SHT31;54086;50.126;8.710;2023-09-30T15:40:52;21.32;56.05
67157;SHT31;54086;50.126;8.710;2023-09-30T15:43:19;21.27;56.13
67157;SHT31;54086;50.126;8.710;2023-09-30T15:45:44;21.21;56.10
67157;SHT31;54086;50.126;8.710;2023-09-30T15:48:09;21.19;56.47
67157;SHT31;54086;50.126;8.710;2023-09-30T15:50:35;21.09;56.30
67157;SHT31;54086;50.126;8.710;2023-09-30T15:53:01;21.01;55.89